Time;durP1;ratioP1;P1;durP2;ratioP2;P2;SDS_P1;SDS_P2;PMS_P1;PMS_P2;Temp;Humidity;BMP_temperature;BMP_pressure;BME280_temperature;BME280_humidity;BME280_pressure;Samples;Min_cycle;Max_cycle;Signal;HPM_P1;HPM_P2
2022/01/09 00:00:10;;;;;;;;;;;;;;;5.39;100.00;98923.28;5024239;28;19932;-72
2022/01/09 00:02:35;;;;;;;;;;;;;;;5.38;100.00;98929.41;5014642;28;20024;-71
2022/01/09 00:05:00;;;;;;;;;;;;;;;5.34;100.00;98928.75;5018050;28;19970;-71
2022/01/09 00:07:26;;;;;;;;;;;;;;;5.32;100.00;98935.81;5022935;28;19972;-71
2022/01/09 00:09:51;;;;;;;;;;;;;;;5.35;100.00;98934.78;5023758;28;19933;-72
2022/01/09 00:12:16;;;;;;;;;;;;;;;5.29;100.00;98938.59;5021938;28;20286;-73
2022/01/09 00:14:41;;;;;;;;;;;;;;;5.33;100.00;98950.50;5023293;28;19970;-73
2022/01/09 00:17:07;;;;;;;;;;;;;;;5.28;100.00;98931.72;5024777;28;19929;-73
2022/01/09 00:19:32;;;;;;;;;;;;;;;5.32;100.00;98954.03;5024804;28;19929;-70
2022/01/09 00:21:57;;;;;;;;;;;;;;;5.25;100.00;98968.31;5000293;28;20683;-73
2022/01/09 00:24:23;;;;;;;;;;;;;;;5.26;100.00;98960.41;5022401;28;20063;-73
2022/01/09 00:26:48;;;;;;;;;;;;;;;5.26;100.00;98970.84;5025936;28;19929;-71
2022/01/09 00:29:13;;;;;;;;;;;;;;;5.25;100.00;98976.13;5024504;28;20047;-73
2022/01/09 00:31:39;;;;;;;;;;;;;;;5.32;100.00;98980.06;5025356;28;19921;-72
2022/01/09 00:34:04;;;;;;;;;;;;;;;5.25;100.00;98978.75;5025886;28;19939;-71
2022/01/09 00:36:30;;;;;;;;;;;;;;;5.21;100.00;98970.25;5019923;28;20514;-71
2022/01/09 00:38:56;;;;;;;;;;;;;;;5.25;100.00;98984.78;5020378;28;20011;-70
2022/01/09 00:41:21;;;;;;;;;;;;;;;5.21;100.00;98987.63;5018463;28;20054;-71
2022/01/09 00:43:46;;;;;;;;;;;;;;;5.25;100.00;98989.16;5032247;28;19990;-72
2022/01/09 00:46:12;;;;;;;;;;;;;;;5.17;100.00;98999.16;5024052;28;19921;-72
2022/01/09 00:48:37;;;;;;;;;;;;;;;5.17;100.00;98993.94;5020466;28;20280;-71
2022/01/09 00:51:02;;;;;;;;;;;;;;;5.16;100.00;98998.28;5024368;28;19921;-73
2022/01/09 00:53:28;;;;;;;;;;;;;;;5.19;100.00;99008.56;5026475;28;20607;-71
2022/01/09 00:55:53;;;;;;;;;;;;;;;5.13;100.00;99015.84;5020624;28;19925;-72
2022/01/09 00:58:18;;;;;;;;;;;;;;;5.21;100.00;99018.88;5023115;28;19967;-72
2022/01/09 01:00:44;;;;;;;;;;;;;;;5.20;100.00;99020.66;5020296;28;20426;-71
2022/01/09 01:03:09;;;;;;;;;;;;;;;5.15;100.00;99020.03;5016889;28;19925;-71
2022/01/09 01:05:34;;;;;;;;;;;;;;;5.16;100.00;99034.75;5021997;28;19928;-72
2022/01/09 01:08:00;;;;;;;;;;;;;;;5.16;100.00;99037.34;5024164;28;19928;-73
2022/01/09 01:10:25;;;;;;;;;;;;;;;5.13;100.00;99045.31;5021547;28;19924;-75
2022/01/09 01:12:50;;;;;;;;;;;;;;;5.11;100.00;99050.59;5021730;28;19950;-72
2022/01/09 01:15:16;;;;;;;;;;;;;;;5.08;100.00;99055.13;5022467;28;19963;-70
2022/01/09 01:17:41;;;;;;;;;;;;;;;5.07;100.00;99053.47;5019279;28;19947;-73
2022/01/09 01:20:07;;;;;;;;;;;;;;;5.09;100.00;99056.81;5007104;28;19921;-73
2022/01/09 01:22:33;;;;;;;;;;;;;;;5.16;100.00;99063.38;5032498;28;19927;-71
2022/01/09 01:24:59;;;;;;;;;;;;;;;5.11;100.00;99074.03;5023359;28;19925;-71
2022/01/09 01:27:25;;;;;;;;;;;;;;;5.06;100.00;99083.00;5044881;28;19963;-70
2022/01/09 01:29:50;;;;;;;;;;;;;;;5.07;100.00;99079.50;5038281;28;19963;-71
2022/01/09 01:32:15;;;;;;;;;;;;;;;5.02;100.00;99094.50;5045048;28;19921;-71
2022/01/09 01:34:40;;;;;;;;;;;;;;;4.99;100.00;99092.06;5045448;28;20365;-70
2022/01/09 01:37:06;;;;;;;;;;;;;;;4.95;100.00;99096.59;5042697;28;19923;-72
2022/01/09 01:39:31;;;;;;;;;;;;;;;5.02;100.00;99110.97;5047192;28;19917;-71
2022/01/09 01:41:56;;;;;;;;;;;;;;;5.02;100.00;99112.72;5044115;28;19999;-71
2022/01/09 01:44:22;;;;;;;;;;;;;;;5.11;100.00;99107.88;5028842;28;19916;-70
2022/01/09 01:46:47;;;;;;;;;;;;;;;5.11;100.00;99120.88;5034377;28;20005;-72
2022/01/09 01:49:13;;;;;;;;;;;;;;;5.14;100.00;99125.09;5029019;28;19979;-72
2022/01/09 01:51:41;;;;;;;;;;;;;;;5.09;100.00;99127.94;5028392;28;19972;-69
2022/01/09 01:54:08;;;;;;;;;;;;;;;5.11;100.00;99133.06;5014701;28;20726;-71
2022/01/09 01:56:34;;;;;;;;;;;;;;;5.13;100.00;99140.81;5027158;28;19959;-72
2022/01/09 01:59:00;;;;;;;;;;;;;;;5.10;100.00;99147.84;5014467;28;20037;-72
2022/01/09 02:01:25;;;;;;;;;;;;;;;5.04;100.00;99136.91;5002191;28;19921;-71
2022/01/09 02:03:50;;;;;;;;;;;;;;;5.06;100.00;99154.16;5006557;28;19975;-70
2022/01/09 02:06:17;;;;;;;;;;;;;;;5.07;100.00;99155.78;5006603;28;19921;-71
2022/01/09 02:08:43;;;;;;;;;;;;;;;5.13;100.00;99152.03;5005488;28;20016;-71
2022/01/09 02:11:08;;;;;;;;;;;;;;;5.11;100.00;99151.31;5003960;28;19999;-71
2022/01/09 02:13:34;;;;;;;;;;;;;;;5.15;98.76;99160.63;5014903;28;19987;-71
2022/01/09 02:16:01;;;;;;;;;;;;;;;5.23;98.95;99162.81;5004784;28;19991;-73
2022/01/09 02:18:27;;;;;;;;;;;;;;;5.24;97.89;99165.34;5005403;28;19928;-73
2022/01/09 02:20:52;;;;;;;;;;;;;;;5.21;98.12;99167.25;5004593;28;19925;-68
2022/01/09 02:23:18;;;;;;;;;;;;;;;5.22;98.47;99168.94;5010926;28;19917;-74
2022/01/09 02:25:44;;;;;;;;;;;;;;;5.29;97.53;99174.69;5020465;28;20071;-74
2022/01/09 02:28:10;;;;;;;;;;;;;;;5.19;96.29;99182.13;5007838;28;19931;-70
2022/01/09 02:30:36;;;;;;;;;;;;;;;5.05;95.68;99164.63;5045643;28;19917;-72
2022/01/09 02:33:04;;;;;;;;;;;;;;;4.97;94.73;99164.16;5033158;28;19917;-71
2022/01/09 02:35:29;;;;;;;;;;;;;;;4.83;94.37;99165.69;5039627;28;19923;-70
2022/01/09 02:37:55;;;;;;;;;;;;;;;4.76;94.30;99180.78;5040549;28;19921;-69
2022/01/09 02:40:22;;;;;;;;;;;;;;;4.77;95.16;99187.66;5043886;28;19924;-72
2022/01/09 02:42:47;;;;;;;;;;;;;;;4.80;96.03;99197.94;5029013;28;19921;-73
2022/01/09 02:45:13;;;;;;;;;;;;;;;4.84;96.32;99208.19;5033180;28;20023;-72
2022/01/09 02:47:39;;;;;;;;;;;;;;;4.86;96.77;99211.53;5044778;28;20229;-72
2022/01/09 02:55:27;;;;;;;;;;;;;;;4.91;95.35;99223.41;5040710;28;19924;-72
2022/01/09 02:57:54;;;;;;;;;;;;;;;4.94;94.53;99225.84;5026760;28;19921;-72
2022/01/09 03:00:34;;;;;;;;;;;;;;;4.97;94.25;99231.84;4986066;28;20031;-72
2022/01/09 03:03:00;;;;;;;;;;;;;;;4.95;93.55;99240.56;5016754;28;19921;-74
2022/01/09 03:05:26;;;;;;;;;;;;;;;4.99;92.22;99240.41;5010245;28;19952;-70
2022/01/09 03:07:51;;;;;;;;;;;;;;;5.00;91.70;99235.13;5007145;28;19953;-72
2022/01/09 03:10:18;;;;;;;;;;;;;;;4.98;91.88;99242.16;5015113;28;19925;-72
2022/01/09 03:12:44;;;;;;;;;;;;;;;4.90;90.67;99239.97;5023577;28;20019;-72
2022/01/09 03:15:09;;;;;;;;;;;;;;;4.92;90.66;99245.91;5025843;28;20355;-75
2022/01/09 03:17:35;;;;;;;;;;;;;;;4.97;89.49;99258.69;5036277;28;19925;-78
2022/01/09 03:20:00;;;;;;;;;;;;;;;5.01;89.58;99257.63;5029048;28;19917;-74
2022/01/09 03:22:26;;;;;;;;;;;;;;;4.93;89.49;99260.59;5029546;28;20033;-78
2022/01/09 03:24:51;;;;;;;;;;;;;;;4.93;89.72;99259.78;5039435;28;19925;-79
2022/01/09 03:27:17;;;;;;;;;;;;;;;4.98;91.77;99275.16;5035206;28;19987;-79
2022/01/09 03:29:42;;;;;;;;;;;;;;;4.93;92.83;99297.03;5031546;28;20430;-80
2022/01/09 03:32:08;;;;;;;;;;;;;;;4.92;92.85;99304.94;5010545;28;19917;-79
2022/01/09 03:34:34;;;;;;;;;;;;;;;4.88;93.48;99305.97;5044901;28;19952;-80
2022/01/09 03:36:59;;;;;;;;;;;;;;;4.88;93.53;99313.78;5038957;28;19916;-80
2022/01/09 03:39:24;;;;;;;;;;;;;;;4.93;93.02;99319.63;5034645;28;19951;-79
2022/01/09 03:41:50;;;;;;;;;;;;;;;4.97;93.36;99318.56;5040263;28;19924;-79
2022/01/09 03:44:15;;;;;;;;;;;;;;;4.99;92.10;99308.09;5028020;28;19973;-80
2022/01/09 03:46:40;;;;;;;;;;;;;;;5.06;91.54;99325.06;5024919;28;20527;-79
2022/01/09 03:49:06;;;;;;;;;;;;;;;5.01;91.80;99325.31;5035982;28;19921;-77
2022/01/09 03:54:13;;;;;;;;;;;;;;;4.97;91.13;99315.13;5031076;28;20285;-76
2022/01/09 03:56:38;;;;;;;;;;;;;;;4.91;91.33;99318.84;5040940;28;20011;-77
2022/01/09 03:59:03;;;;;;;;;;;;;;;4.89;89.97;99326.75;5038438;28;20221;-77
2022/01/09 04:01:28;;;;;;;;;;;;;;;4.85;90.70;99330.41;5033749;28;19930;-77
2022/01/09 04:03:54;;;;;;;;;;;;;;;4.85;90.12;99332.19;5029195;28;19921;-78
2022/01/09 04:06:19;;;;;;;;;;;;;;;4.82;90.57;99340.13;5028356;28;20035;-78
2022/01/09 04:08:45;;;;;;;;;;;;;;;4.81;90.89;99339.25;5030775;28;19921;-78
2022/01/09 04:11:22;;;;;;;;;;;;;;;4.77;90.93;99345.53;5032899;28;19924;-78
2022/01/09 04:13:47;;;;;;;;;;;;;;;4.79;91.73;99352.34;5028825;28;19917;-77
2022/01/09 04:16:12;;;;;;;;;;;;;;;4.82;92.04;99359.16;5029548;28;19918;-75
2022/01/09 04:18:38;;;;;;;;;;;;;;;4.87;92.55;99365.00;5029986;28;19932;-74
2022/01/09 04:21:03;;;;;;;;;;;;;;;4.92;92.02;99362.19;5030347;28;19923;-73
2022/01/09 04:23:28;;;;;;;;;;;;;;;4.95;91.15;99364.66;5044260;28;19920;-75
2022/01/09 04:25:54;;;;;;;;;;;;;;;4.97;89.80;99359.38;5043358;28;19929;-74
2022/01/09 04:28:19;;;;;;;;;;;;;;;4.89;89.33;99362.31;5030083;28;20334;-75
2022/01/09 04:30:44;;;;;;;;;;;;;;;4.87;89.85;99377.16;5031278;28;19939;-74
2022/01/09 04:33:10;;;;;;;;;;;;;;;4.86;90.77;99378.06;5029630;28;19917;-74
2022/01/09 04:35:36;;;;;;;;;;;;;;;4.82;91.12;99394.75;5031185;28;19960;-75
2022/01/09 04:38:01;;;;;;;;;;;;;;;4.79;91.82;99396.59;5030608;28;19939;-74
2022/01/09 04:40:27;;;;;;;;;;;;;;;4.82;92.18;99393.00;5047853;28;19932;-79
2022/01/09 04:45:33;;;;;;;;;;;;;;;4.88;90.97;99399.66;5022867;28;19923;-77
2022/01/09 04:48:02;;;;;;;;;;;;;;;4.86;91.00;99398.88;5018333;28;20015;-72
2022/01/09 04:50:30;;;;;;;;;;;;;;;4.90;90.34;99405.66;5016287;28;20004;-71
2022/01/09 04:55:39;;;;;;;;;;;;;;;4.82;90.20;99423.38;5015382;28;20040;-72
2022/01/09 04:58:05;;;;;;;;;;;;;;;4.80;89.99;99426.91;5029345;28;19917;-80
2022/01/09 05:00:30;;;;;;;;;;;;;;;4.85;90.03;99431.06;5021124;28;19927;-76
2022/01/09 05:02:56;;;;;;;;;;;;;;;4.90;89.68;99452.50;5027317;28;19921;-79
2022/01/09 05:05:21;;;;;;;;;;;;;;;4.77;92.55;99452.22;5027019;28;20112;-77
2022/01/09 05:07:47;;;;;;;;;;;;;;;4.66;93.47;99457.88;5030927;28;19917;-76
2022/01/09 05:10:13;;;;;;;;;;;;;;;4.62;93.10;99464.16;5022757;28;20024;-76
2022/01/09 05:12:38;;;;;;;;;;;;;;;4.56;93.65;99474.81;5025659;28;19921;-78
2022/01/09 05:15:05;;;;;;;;;;;;;;;4.51;93.40;99471.59;5025696;28;19924;-77
2022/01/09 05:17:30;;;;;;;;;;;;;;;4.44;91.95;99481.41;5020664;28;19921;-76
2022/01/09 05:19:57;;;;;;;;;;;;;;;4.26;93.67;99486.47;5026474;28;19932;-76
2022/01/09 05:22:24;;;;;;;;;;;;;;;4.22;94.16;99486.69;5024998;28;19939;-77
2022/01/09 05:24:50;;;;;;;;;;;;;;;4.20;94.94;99493.69;5027803;28;20377;-77
2022/01/09 05:27:16;;;;;;;;;;;;;;;4.15;94.85;99502.56;5043766;28;20011;-77
2022/01/09 05:29:41;;;;;;;;;;;;;;;4.17;95.00;99512.88;5047990;28;20012;-78
2022/01/09 05:32:07;;;;;;;;;;;;;;;4.13;95.73;99512.16;5047343;28;19925;-77
2022/01/09 05:34:32;;;;;;;;;;;;;;;4.25;95.97;99520.34;5047732;28;19917;-80
2022/01/09 05:36:57;;;;;;;;;;;;;;;4.30;96.12;99519.25;5025464;28;19917;-80
2022/01/09 05:39:23;;;;;;;;;;;;;;;4.38;94.23;99523.28;5007538;28;19917;-79
2022/01/09 05:41:48;;;;;;;;;;;;;;;4.42;93.01;99514.44;5007878;28;19925;-78
2022/01/09 05:44:13;;;;;;;;;;;;;;;4.47;92.58;99515.06;5013310;28;19928;-71
2022/01/09 05:46:38;;;;;;;;;;;;;;;4.47;92.90;99528.94;5005840;28;19929;-71
2022/01/09 05:49:04;;;;;;;;;;;;;;;4.49;93.85;99526.25;5009321;28;19956;-71
2022/01/09 05:51:29;;;;;;;;;;;;;;;4.52;93.78;99525.31;5014165;28;19929;-71
2022/01/09 05:53:54;;;;;;;;;;;;;;;4.45;93.56;99535.13;5007557;28;20321;-70
2022/01/09 05:56:20;;;;;;;;;;;;;;;4.40;93.31;99543.13;5017723;28;20016;-71
2022/01/09 05:58:45;;;;;;;;;;;;;;;4.31;93.54;99543.47;5006581;28;19917;-70
2022/01/09 06:01:11;;;;;;;;;;;;;;;4.24;93.46;99542.91;5005744;28;20378;-70
2022/01/09 06:03:36;;;;;;;;;;;;;;;4.20;93.66;99541.34;4987564;28;19952;-71
2022/01/09 06:06:01;;;;;;;;;;;;;;;4.20;93.15;99543.94;5004697;28;20375;-71
2022/01/09 06:08:27;;;;;;;;;;;;;;;4.13;93.11;99553.75;5024700;28;19975;-70
2022/01/09 06:10:52;;;;;;;;;;;;;;;4.08;93.75;99553.06;5007779;28;19923;-69
2022/01/09 06:13:18;;;;;;;;;;;;;;;4.08;92.71;99553.06;5024857;28;19921;-69
2022/01/09 06:15:43;;;;;;;;;;;;;;;4.02;92.00;99563.72;5024017;28;19924;-70
2022/01/09 06:18:08;;;;;;;;;;;;;;;3.94;92.43;99565.81;5025216;28;20290;-68
2022/01/09 06:20:34;;;;;;;;;;;;;;;3.93;91.57;99569.31;5025512;28;20614;-71
2022/01/09 06:22:59;;;;;;;;;;;;;;;3.90;91.56;99559.03;5026151;28;19917;-71
2022/01/09 06:25:25;;;;;;;;;;;;;;;3.90;90.52;99564.22;5026228;28;19925;-71
2022/01/09 06:27:50;;;;;;;;;;;;;;;3.90;90.84;99574.63;5047053;28;19963;-71
2022/01/09 06:30:15;;;;;;;;;;;;;;;3.85;91.19;99582.59;5026993;28;20006;-71
2022/01/09 06:32:41;;;;;;;;;;;;;;;3.86;91.73;99595.50;5045043;28;19990;-70
2022/01/09 06:35:07;;;;;;;;;;;;;;;3.84;92.88;99597.34;5045320;28;19943;-71
2022/01/09 06:37:32;;;;;;;;;;;;;;;3.75;93.96;99605.47;5030170;28;19917;-71
2022/01/09 06:39:58;;;;;;;;;;;;;;;3.72;94.90;99610.81;5030876;28;19917;-71
2022/01/09 06:42:23;;;;;;;;;;;;;;;3.79;94.65;99617.44;5026780;28;19917;-70
2022/01/09 06:44:49;;;;;;;;;;;;;;;3.83;94.44;99619.03;5014593;28;19983;-71
2022/01/09 06:47:14;;;;;;;;;;;;;;;3.94;94.33;99618.59;5008831;28;19929;-70
2022/01/09 06:49:39;;;;;;;;;;;;;;;4.05;94.90;99627.72;5008684;28;19937;-71
2022/01/09 06:52:05;;;;;;;;;;;;;;;4.14;94.70;99635.16;5008959;28;19992;-71
2022/01/09 06:54:30;;;;;;;;;;;;;;;4.13;94.60;99634.31;5010697;28;19936;-72
2022/01/09 06:56:55;;;;;;;;;;;;;;;4.11;94.48;99641.34;5054442;28;20403;-70
2022/01/09 06:59:21;;;;;;;;;;;;;;;4.08;92.23;99633.66;5048304;28;19920;-70
2022/01/09 07:01:46;;;;;;;;;;;;;;;4.12;92.40;99645.63;5037557;28;19925;-72
2022/01/09 07:04:11;;;;;;;;;;;;;;;4.20;91.31;99637.53;5026593;28;19970;-72
2022/01/09 07:06:37;;;;;;;;;;;;;;;4.21;90.56;99623.63;5008761;28;19917;-71
2022/01/09 07:09:03;;;;;;;;;;;;;;;4.23;89.01;99619.22;5008506;28;19952;-71
2022/01/09 07:11:28;;;;;;;;;;;;;;;4.27;88.27;99618.16;5016264;28;19920;-72
2022/01/09 07:13:54;;;;;;;;;;;;;;;4.32;88.57;99628.38;5009020;28;20063;-71
2022/01/09 07:16:19;;;;;;;;;;;;;;;4.36;89.35;99650.75;5008441;28;19992;-70
2022/01/09 07:18:45;;;;;;;;;;;;;;;4.42;90.34;99652.25;5008609;28;19936;-72
2022/01/09 07:21:10;;;;;;;;;;;;;;;4.44;90.52;99663.47;5016510;28;19952;-72
2022/01/09 07:23:35;;;;;;;;;;;;;;;4.47;90.26;99660.72;5028316;28;19974;-72
2022/01/09 07:26:01;;;;;;;;;;;;;;;4.45;91.68;99673.78;5027373;28;19964;-72
2022/01/09 07:28:26;;;;;;;;;;;;;;;4.48;90.94;99665.00;5028056;28;19928;-69
2022/01/09 07:30:51;;;;;;;;;;;;;;;4.49;88.52;99657.16;5011056;28;19917;-70
2022/01/09 07:33:16;;;;;;;;;;;;;;;4.54;87.94;99669.13;5009482;28;19935;-69
2022/01/09 07:35:42;;;;;;;;;;;;;;;4.63;87.32;99667.00;5028020;28;20287;-70
2022/01/09 07:38:08;;;;;;;;;;;;;;;4.70;88.61;99677.13;5010132;28;19937;-74
2022/01/09 07:40:33;;;;;;;;;;;;;;;4.56;90.53;99685.50;5028312;28;20285;-73
2022/01/09 07:42:58;;;;;;;;;;;;;;;4.54;90.94;99709.00;5004960;28;19921;-71
2022/01/09 07:45:26;;;;;;;;;;;;;;;4.46;90.96;99705.84;5010073;28;19971;-70
2022/01/09 07:48:06;;;;;;;;;;;;;;;4.38;90.67;99707.91;5006355;28;20627;-70
2022/01/09 07:50:32;;;;;;;;;;;;;;;4.23;90.17;99707.59;4998115;28;19921;-70
2022/01/09 07:52:58;;;;;;;;;;;;;;;4.12;90.34;99714.97;5008559;28;20461;-70
2022/01/09 07:55:23;;;;;;;;;;;;;;;4.05;90.51;99710.91;5010498;28;20072;-71
2022/01/09 07:57:49;;;;;;;;;;;;;;;3.95;89.94;99708.66;5046705;28;20578;-71
2022/01/09 08:00:15;;;;;;;;;;;;;;;3.92;89.75;99716.56;5028756;28;20412;-71
2022/01/09 08:02:41;;;;;;;;;;;;;;;3.91;89.76;99716.63;5043589;28;20387;-71
2022/01/09 08:05:07;;;;;;;;;;;;;;;3.82;90.52;99723.00;5023412;28;19975;-70
2022/01/09 08:07:32;;;;;;;;;;;;;;;3.78;91.54;99731.81;5012476;28;19961;-70
2022/01/09 08:09:57;;;;;;;;;;;;;;;3.73;91.91;99739.78;5008691;28;19968;-70
2022/01/09 08:12:22;;;;;;;;;;;;;;;3.77;92.75;99746.56;5014944;28;20578;-72
2022/01/09 08:14:48;;;;;;;;;;;;;;;3.84;92.17;99752.38;5007900;28;19955;-70
2022/01/09 08:17:13;;;;;;;;;;;;;;;3.79;92.80;99751.72;5013734;28;19924;-70
2022/01/09 08:19:39;;;;;;;;;;;;;;;3.75;92.39;99757.91;5007748;28;20393;-69
2022/01/09 08:22:05;;;;;;;;;;;;;;;3.77;92.60;99759.53;5024137;28;19921;-70
2022/01/09 08:24:31;;;;;;;;;;;;;;;3.86;92.36;99760.97;5028109;28;19917;-71
2022/01/09 08:26:56;;;;;;;;;;;;;;;4.02;92.31;99769.03;5034135;28;20306;-71
2022/01/09 08:29:22;;;;;;;;;;;;;;;4.11;92.39;99775.66;5027155;28;19921;-71
2022/01/09 08:31:47;;;;;;;;;;;;;;;4.22;92.54;99783.03;5026892;28;19952;-71
2022/01/09 08:34:12;;;;;;;;;;;;;;;4.21;93.99;99790.00;5027543;28;20362;-71
2022/01/09 08:36:38;;;;;;;;;;;;;;;4.25;94.29;99793.34;5021927;28;19917;-72
2022/01/09 08:39:03;;;;;;;;;;;;;;;4.16;94.13;99799.72;5009595;28;19918;-70
2022/01/09 08:41:29;;;;;;;;;;;;;;;4.06;95.37;99804.44;5008543;28;19983;-71
2022/01/09 08:43:54;;;;;;;;;;;;;;;3.94;96.16;99804.88;5014929;28;19933;-71
2022/01/09 08:46:19;;;;;;;;;;;;;;;3.95;96.47;99815.19;5007318;28;19983;-71
2022/01/09 08:48:45;;;;;;;;;;;;;;;4.00;97.71;99817.63;5006936;28;19925;-69
2022/01/09 08:51:10;;;;;;;;;;;;;;;4.05;97.57;99822.66;5007423;28;19917;-70
2022/01/09 08:56:16;;;;;;;;;;;;;;;4.18;98.46;99829.97;5006631;28;19921;-71
2022/01/09 08:58:42;;;;;;;;;;;;;;;4.26;97.36;99826.22;5022827;28;19917;-70
2022/01/09 09:01:07;;;;;;;;;;;;;;;4.31;97.33;99829.50;5026434;28;19921;-72
2022/01/09 09:03:34;;;;;;;;;;;;;;;4.44;97.14;99825.53;5041511;28;19918;-70
2022/01/09 09:05:59;;;;;;;;;;;;;;;4.53;97.31;99828.69;5025715;28;19921;-70
2022/01/09 09:08:24;;;;;;;;;;;;;;;4.59;96.38;99831.06;5020930;28;19925;-72
2022/01/09 09:10:50;;;;;;;;;;;;;;;4.65;95.57;99828.22;5010143;28;19932;-71
2022/01/09 09:13:15;;;;;;;;;;;;;;;4.74;94.49;99827.84;5010549;28;19918;-72
2022/01/09 09:15:40;;;;;;;;;;;;;;;4.76;93.69;99831.25;5006914;28;20040;-71
2022/01/09 09:18:05;;;;;;;;;;;;;;;4.85;93.22;99822.25;5021747;28;19921;-70
2022/01/09 09:20:31;;;;;;;;;;;;;;;4.92;93.22;99828.06;5026356;28;20321;-70
2022/01/09 09:22:56;;;;;;;;;;;;;;;4.92;91.99;99828.88;5026699;28;19924;-71
2022/01/09 09:25:21;;;;;;;;;;;;;;;4.94;92.27;99832.28;5027803;28;19988;-71
2022/01/09 09:27:47;;;;;;;;;;;;;;;4.87;92.66;99843.84;5042193;28;19953;-73
2022/01/09 09:30:14;;;;;;;;;;;;;;;4.94;92.44;99837.50;5025973;28;20452;-71
2022/01/09 09:32:40;;;;;;;;;;;;;;;5.17;92.26;99848.72;5026126;28;19918;-70
2022/01/09 09:35:05;;;;;;;;;;;;;;;5.58;90.28;99840.13;5026270;28;19924;-71
2022/01/09 09:37:31;;;;;;;;;;;;;;;5.81;88.83;99841.75;5010454;28;19928;-71
2022/01/09 09:39:56;;;;;;;;;;;;;;;5.93;89.18;99848.19;5020887;28;19921;-71
2022/01/09 09:42:22;;;;;;;;;;;;;;;5.74;89.60;99863.78;5006034;28;19917;-71
2022/01/09 09:44:47;;;;;;;;;;;;;;;5.32;90.83;99865.50;5019537;28;20283;-70
2022/01/09 09:47:13;;;;;;;;;;;;;;;5.20;91.76;99866.84;5026061;28;19918;-71
2022/01/09 09:49:38;;;;;;;;;;;;;;;5.04;92.08;99887.44;5026098;28;20396;-70
2022/01/09 09:52:05;;;;;;;;;;;;;;;4.89;93.35;99886.28;5012546;28;19933;-70
2022/01/09 09:54:30;;;;;;;;;;;;;;;4.73;93.33;99888.63;5020500;28;19936;-71
2022/01/09 09:56:55;;;;;;;;;;;;;;;4.72;94.08;99889.53;5039723;28;19920;-70
2022/01/09 09:59:36;;;;;;;;;;;;;;;4.61;95.18;99905.53;5017194;28;19918;-70
2022/01/09 10:02:07;;;;;;;;;;;;;;;4.55;95.17;99910.13;5005169;28;20010;-70
2022/01/09 10:04:32;;;;;;;;;;;;;;;4.45;96.33;99904.41;5006392;28;19921;-70
2022/01/09 10:06:57;;;;;;;;;;;;;;;4.48;96.40;99920.75;5027593;28;20291;-79
2022/01/09 10:09:24;;;;;;;;;;;;;;;4.53;97.03;99922.31;5025738;28;20055;-72
2022/01/09 10:11:51;;;;;;;;;;;;;;;4.64;96.99;99926.25;5021278;28;19975;-71
2022/01/09 10:14:32;;;;;;;;;;;;;;;4.78;96.94;99922.28;5005889;28;19921;-72
2022/01/09 10:17:12;;;;;;;;;;;;;;;4.95;95.57;99930.28;5010983;28;19932;-71
2022/01/09 10:19:53;;;;;;;;;;;;;;;5.10;94.61;99922.81;5024722;28;20546;-69
2022/01/09 10:22:34;;;;;;;;;;;;;;;5.57;93.55;99921.81;5016584;28;19921;-70
2022/01/09 10:25:15;;;;;;;;;;;;;;;5.79;91.84;99916.53;5025464;28;19921;-75
2022/01/09 10:27:40;;;;;;;;;;;;;;;5.95;90.15;99915.91;5005764;28;19944;-70
2022/01/09 10:30:06;;;;;;;;;;;;;;;5.81;90.66;99917.31;4986804;28;19921;-70
2022/01/09 10:32:32;;;;;;;;;;;;;;;5.63;91.17;99915.50;5007720;28;19917;-71
2022/01/09 10:35:13;;;;;;;;;;;;;;;5.67;90.25;99911.88;5005112;28;20390;-71
2022/01/09 10:37:39;;;;;;;;;;;;;;;5.58;91.40;99913.91;5022100;28;19948;-71
2022/01/09 10:40:08;;;;;;;;;;;;;;;5.67;91.87;99925.72;5023556;28;20003;-70
2022/01/09 10:42:33;;;;;;;;;;;;;;;6.00;90.94;99916.59;5020989;28;20602;-71
2022/01/09 10:45:14;;;;;;;;;;;;;;;6.11;90.32;99924.81;5018686;28;19945;-72
2022/01/09 10:47:39;;;;;;;;;;;;;;;6.16;90.02;99925.44;5024664;28;19917;-73
2022/01/09 10:50:04;;;;;;;;;;;;;;;6.17;89.68;99927.13;5024542;28;19932;-73
2022/01/09 10:52:31;;;;;;;;;;;;;;;6.01;89.61;99932.16;5025626;28;19921;-73
2022/01/09 10:54:57;;;;;;;;;;;;;;;5.95;90.27;99942.84;5008194;28;19948;-71
2022/01/09 10:57:40;;;;;;;;;;;;;;;5.85;89.69;99942.38;5042712;28;20300;-71
2022/01/09 11:00:05;;;;;;;;;;;;;;;5.54;88.29;99932.34;5045163;28;20431;-70
2022/01/09 11:02:30;;;;;;;;;;;;;;;5.46;89.64;99950.88;5044820;28;19917;-71
2022/01/09 11:04:56;;;;;;;;;;;;;;;5.42;89.72;99955.38;5037468;28;20334;-70
2022/01/09 11:07:22;;;;;;;;;;;;;;;5.40;88.05;99951.97;5024345;28;19928;-70
2022/01/09 11:09:49;;;;;;;;;;;;;;;5.16;87.75;99955.56;5027135;28;20016;-70
2022/01/09 11:12:17;;;;;;;;;;;;;;;5.08;87.77;99961.91;5016614;28;20313;-70
2022/01/09 11:14:43;;;;;;;;;;;;;;;5.03;89.20;99970.78;5008819;28;19918;-69
2022/01/09 11:17:09;;;;;;;;;;;;;;;4.91;89.46;99979.91;5014949;28;19922;-72
2022/01/09 11:19:35;;;;;;;;;;;;;;;4.86;89.81;99985.31;4997745;28;19975;-73
2022/01/09 11:22:02;;;;;;;;;;;;;;;4.74;90.68;99993.56;5018627;28;19920;-72
2022/01/09 11:24:42;;;;;;;;;;;;;;;4.62;92.11;99995.69;5022592;28;19921;-72
2022/01/09 11:27:23;;;;;;;;;;;;;;;4.48;93.07;100006.59;5020309;28;19929;-72
2022/01/09 11:30:04;;;;;;;;;;;;;;;4.42;93.88;100018.97;5028938;28;19928;-74
2022/01/09 11:32:45;;;;;;;;;;;;;;;4.40;93.58;100010.34;5025132;28;19971;-74
2022/01/09 11:35:26;;;;;;;;;;;;;;;4.40;93.86;100015.56;5028186;28;19932;-74
2022/01/09 11:38:07;;;;;;;;;;;;;;;4.35;93.65;100020.09;4998001;28;19917;-73
2022/01/09 11:40:33;;;;;;;;;;;;;;;4.39;93.77;100024.25;5011389;28;19929;-73
2022/01/09 11:43:00;;;;;;;;;;;;;;;4.47;93.68;100020.50;5025578;28;19925;-73
2022/01/09 11:45:40;;;;;;;;;;;;;;;4.44;93.54;100033.59;5022211;28;19979;-72
2022/01/09 11:48:06;;;;;;;;;;;;;;;4.47;93.87;100030.91;5027579;28;19917;-71
2022/01/09 11:50:31;;;;;;;;;;;;;;;4.55;93.28;100034.97;5027080;28;19925;-72
2022/01/09 11:53:00;;;;;;;;;;;;;;;4.63;94.07;100032.97;5018962;28;20696;-71
2022/01/09 11:55:41;;;;;;;;;;;;;;;4.73;93.95;100031.75;5009338;28;19983;-74
2022/01/09 11:58:10;;;;;;;;;;;;;;;4.92;93.50;100033.69;5016071;28;19925;-72
2022/01/09 12:00:37;;;;;;;;;;;;;;;5.11;92.61;100033.84;5025732;28;19932;-72
2022/01/09 12:03:17;;;;;;;;;;;;;;;5.24;92.29;100027.25;5027777;28;19924;-74
2022/01/09 12:05:58;;;;;;;;;;;;;;;5.33;90.93;100033.88;5013592;28;20004;-73
2022/01/09 12:08:24;;;;;;;;;;;;;;;5.26;89.17;100030.66;5006837;28;19922;-75
2022/01/09 12:10:50;;;;;;;;;;;;;;;5.21;88.45;100035.22;5009034;28;20437;-75
2022/01/09 12:13:35;;;;;;;;;;;;;;;5.19;88.39;100042.22;5008498;28;19980;-74
2022/01/09 12:16:01;;;;;;;;;;;;;;;5.27;88.13;100034.13;4995255;28;19971;-74
2022/01/09 12:18:42;;;;;;;;;;;;;;;5.22;87.23;100038.66;5007294;28;19925;-75
2022/01/09 12:21:09;;;;;;;;;;;;;;;5.08;86.60;100041.78;5009850;28;20659;-74
2022/01/09 12:23:34;;;;;;;;;;;;;;;4.94;86.63;100030.09;5013007;28;20451;-73
2022/01/09 12:25:59;;;;;;;;;;;;;;;4.88;87.46;100042.50;5020276;28;19921;-74
2022/01/09 12:28:33;;;;;;;;;;;;;;;4.85;88.29;100046.06;4995514;28;19933;-75
2022/01/09 12:31:00;;;;;;;;;;;;;;;4.95;89.48;100055.22;5018453;28;20364;-74
2022/01/09 12:33:25;;;;;;;;;;;;;;;4.98;88.60;100062.06;5027429;28;19966;-75
2022/01/09 12:36:06;;;;;;;;;;;;;;;4.89;90.36;100068.47;5023857;28;19976;-75
2022/01/09 12:38:33;;;;;;;;;;;;;;;4.90;91.57;100071.91;5022415;28;20440;-75
2022/01/09 12:41:13;;;;;;;;;;;;;;;4.99;91.36;100068.97;5027594;28;20290;-72
2022/01/09 12:43:39;;;;;;;;;;;;;;;5.11;91.78;100068.53;4981635;28;19929;-71
2022/01/09 12:46:20;;;;;;;;;;;;;;;5.23;91.68;100080.28;4987577;28;19925;-71
2022/01/09 12:49:00;;;;;;;;;;;;;;;5.22;89.65;100067.28;5003306;28;19944;-72
2022/01/09 12:51:29;;;;;;;;;;;;;;;5.24;88.13;100065.47;5014738;28;19948;-70
2022/01/09 12:53:55;;;;;;;;;;;;;;;5.18;88.74;100079.59;5011291;28;19929;-71
2022/01/09 12:56:22;;;;;;;;;;;;;;;5.14;88.28;100075.38;5023519;28;20305;-71
2022/01/09 12:59:05;;;;;;;;;;;;;;;5.02;88.11;100076.69;4988855;28;19960;-71
2022/01/09 13:01:31;;;;;;;;;;;;;;;4.90;89.33;100084.94;5025967;28;19921;-72
2022/01/09 13:04:14;;;;;;;;;;;;;;;4.86;90.54;100105.03;5025554;28;19921;-71
2022/01/09 13:06:40;;;;;;;;;;;;;;;4.79;91.13;100113.97;5018270;28;19943;-72